createdAt,value
2019-05-26T00:01:00.966Z,73.30
2019-05-26T00:03:29.401Z,73.30
2019-05-26T00:05:57.841Z,73.30
2019-05-26T00:08:27.002Z,73.30
2019-05-26T00:10:55.707Z,73.30
2019-05-26T00:13:24.158Z,73.10
2019-05-26T00:15:52.593Z,73.10
2019-05-26T00:18:21.040Z,73.20
2019-05-26T00:20:49.757Z,73.00
2019-05-26T00:23:18.461Z,73.10
2019-05-26T00:25:46.896Z,73.20
2019-05-26T00:28:15.661Z,73.20
2019-05-26T00:30:44.125Z,73.20
2019-05-26T00:33:12.574Z,73.20
2019-05-26T00:35:41.019Z,73.20
2019-05-26T00:38:09.467Z,73.00
2019-05-26T00:40:37.905Z,73.00
2019-05-26T00:43:06.371Z,73.10
2019-05-26T00:45:35.239Z,72.90
2019-05-26T00:48:04.229Z,72.80
2019-05-26T00:50:33.052Z,72.80
2019-05-26T00:53:02.033Z,72.90
2019-05-26T00:55:30.547Z,73.00
2019-05-26T00:57:59.046Z,72.90
2019-05-26T01:00:38.808Z,72.80
2019-05-26T01:03:07.730Z,72.90
2019-05-26T01:05:36.226Z,72.90
2019-05-26T01:08:06.956Z,73.20
2019-05-26T01:10:36.458Z,73.30
2019-05-26T01:13:06.213Z,73.30
2019-05-26T01:15:35.259Z,73.20
2019-05-26T01:18:04.646Z,73.10
2019-05-26T01:20:33.091Z,73.00
2019-05-26T01:23:01.526Z,73.10
2019-05-26T01:25:29.988Z,73.10
2019-05-26T01:27:58.780Z,73.00
2019-05-26T01:30:35.334Z,73.10
2019-05-26T01:33:04.130Z,73.00
2019-05-26T01:35:33.638Z,73.00
2019-05-26T01:38:03.459Z,72.90
2019-05-26T01:40:40.121Z,73.30
2019-05-26T01:43:08.994Z,73.20
2019-05-26T01:45:37.763Z,73.00
2019-05-26T01:48:07.037Z,72.90
2019-05-26T01:50:35.705Z,73.00
2019-05-26T01:53:04.897Z,72.90
2019-05-26T01:55:33.775Z,73.00
2019-05-26T01:58:02.214Z,72.90
2019-05-26T02:00:30.728Z,73.20
2019-05-26T02:02:59.153Z,73.10
2019-05-26T02:05:27.612Z,73.10
2019-05-26T02:07:56.376Z,73.00
2019-05-26T02:10:24.820Z,73.00
2019-05-26T02:12:53.249Z,73.00
2019-05-26T02:15:23.039Z,72.80
2019-05-26T02:17:51.545Z,72.80
2019-05-26T02:20:20.123Z,72.80
2019-05-26T02:22:48.607Z,72.70
2019-05-26T02:25:18.819Z,72.80
2019-05-26T02:27:47.346Z,72.90
2019-05-26T02:30:17.530Z,73.00
2019-05-26T02:32:45.967Z,73.00
2019-05-26T02:35:14.852Z,73.30
2019-05-26T02:37:43.531Z,73.30
2019-05-26T02:40:12.422Z,73.40
2019-05-26T02:42:41.335Z,73.50
2019-05-26T02:45:12.938Z,73.30
2019-05-26T02:47:41.446Z,73.30
2019-05-26T02:50:10.502Z,73.20
2019-05-26T02:52:38.995Z,73.20
2019-05-26T02:55:09.901Z,73.10
2019-05-26T02:57:38.341Z,73.10
2019-05-26T03:00:11.669Z,73.10
2019-05-26T03:02:40.367Z,73.20
2019-05-26T03:05:10.803Z,73.20
2019-05-26T03:07:43.562Z,73.20
2019-05-26T03:10:14.480Z,73.30
2019-05-26T03:12:43.961Z,73.30
2019-05-26T03:15:15.482Z,73.20
2019-05-26T03:17:43.979Z,73.20
2019-05-26T03:20:14.222Z,73.10
2019-05-26T03:22:43.190Z,73.10
2019-05-26T03:25:12.753Z,72.80
2019-05-26T03:27:41.684Z,72.80
2019-05-26T03:30:10.710Z,72.40
2019-05-26T03:32:39.397Z,72.40
2019-05-26T03:35:10.536Z,72.40
2019-05-26T03:37:39.097Z,72.40
2019-05-26T03:40:09.212Z,72.50
2019-05-26T03:42:37.808Z,72.50
2019-05-26T03:45:07.708Z,72.50
2019-05-26T03:47:36.368Z,72.50
2019-05-26T03:50:16.256Z,72.40
2019-05-26T03:52:44.702Z,72.30
2019-05-26T03:55:13.425Z,72.10
2019-05-26T03:57:41.870Z,72.30
2019-05-26T04:00:10.648Z,71.80
2019-05-26T04:02:39.367Z,71.80
2019-05-26T04:05:08.354Z,71.90
2019-05-26T04:07:36.883Z,71.90
2019-05-26T04:10:06.885Z,71.70
2019-05-26T04:12:35.766Z,71.90
2019-05-26T04:15:06.725Z,71.90
2019-05-26T04:17:35.167Z,71.60
2019-05-26T04:20:05.541Z,71.70
2019-05-26T04:22:33.972Z,71.50
2019-05-26T04:25:03.151Z,71.10
2019-05-26T04:27:31.608Z,71.20
2019-05-26T04:30:00.054Z,71.10
2019-05-26T04:32:28.566Z,71.00
2019-05-26T04:34:57.000Z,70.60
2019-05-26T04:37:25.735Z,70.40
2019-05-26T04:39:54.235Z,70.30
2019-05-26T04:42:22.945Z,69.80
2019-05-26T04:44:51.626Z,69.60
2019-05-26T04:47:20.092Z,69.50
2019-05-26T04:49:48.605Z,69.30
2019-05-26T04:52:17.075Z,69.10
2019-05-26T04:54:45.602Z,69.10
2019-05-26T04:57:14.082Z,69.00
2019-05-26T04:59:42.515Z,68.10
2019-05-26T05:02:10.971Z,68.30
2019-05-26T05:04:39.699Z,68.00
2019-05-26T05:07:08.492Z,67.90
2019-05-26T05:09:37.207Z,67.80
2019-05-26T05:12:05.650Z,67.80
2019-05-26T05:14:34.096Z,67.50
2019-05-26T05:17:02.551Z,67.40
2019-05-26T05:19:30.994Z,67.40
2019-05-26T05:21:59.462Z,67.30
2019-05-26T05:24:28.141Z,67.40
2019-05-26T05:26:56.855Z,67.20
2019-05-26T05:29:25.567Z,67.20
2019-05-26T05:31:54.010Z,67.10
2019-05-26T05:34:22.700Z,67.10
2019-05-26T05:36:51.154Z,66.80
2019-05-26T05:39:19.590Z,66.50
2019-05-26T05:41:48.316Z,66.40
2019-05-26T05:44:16.838Z,65.90
2019-05-26T05:46:45.297Z,65.40
2019-05-26T05:49:13.979Z,65.40
2019-05-26T05:51:42.439Z,65.30
2019-05-26T05:54:11.168Z,64.80
2019-05-26T05:56:39.622Z,64.60
2019-05-26T05:59:08.067Z,64.20
2019-05-26T06:01:36.523Z,63.70
2019-05-26T06:04:05.027Z,63.40
2019-05-26T06:06:33.490Z,63.00
2019-05-26T06:09:01.941Z,62.30
2019-05-26T06:11:30.391Z,61.80
2019-05-26T06:13:58.902Z,61.40
2019-05-26T06:16:28.423Z,61.30
2019-05-26T06:18:56.864Z,61.40
2019-05-26T06:21:26.162Z,60.90
2019-05-26T06:23:54.603Z,60.90
2019-05-26T06:26:23.071Z,60.70
2019-05-26T06:28:52.557Z,60.60
2019-05-26T06:31:21.325Z,60.30
2019-05-26T06:33:50.082Z,60.10
2019-05-26T06:36:18.538Z,60.00
2019-05-26T06:38:46.981Z,60.10
2019-05-26T06:41:30.426Z,59.90
2019-05-26T06:43:45.875Z,59.10
2019-05-26T06:46:14.325Z,60.00
2019-05-26T06:48:42.771Z,59.30
2019-05-26T06:51:11.479Z,58.80
2019-05-26T06:53:39.916Z,58.60
2019-05-26T06:56:08.628Z,58.50
2019-05-26T06:58:37.352Z,58.40
2019-05-26T07:01:06.111Z,57.90
2019-05-26T07:03:34.572Z,58.40
2019-05-26T07:06:03.007Z,57.90
2019-05-26T07:08:31.715Z,57.90
2019-05-26T07:11:00.150Z,57.30
2019-05-26T07:13:28.675Z,57.80
2019-05-26T07:15:57.125Z,57.80
2019-05-26T07:18:25.579Z,57.90
2019-05-26T07:20:54.018Z,58.30
2019-05-26T07:23:22.474Z,58.10
2019-05-26T07:25:50.919Z,58.60
2019-05-26T07:28:19.438Z,57.80
2019-05-26T07:30:47.904Z,57.40
2019-05-26T07:33:16.668Z,57.20
2019-05-26T07:35:45.109Z,57.40
2019-05-26T07:38:13.558Z,57.70
2019-05-26T07:40:42.012Z,57.00
2019-05-26T07:43:10.796Z,57.30
2019-05-26T07:45:39.241Z,57.70
2019-05-26T07:48:07.975Z,57.60
2019-05-26T07:50:36.419Z,58.00
2019-05-26T07:53:04.944Z,58.00
2019-05-26T07:55:33.390Z,58.10
2019-05-26T07:58:01.925Z,58.40
2019-05-26T08:00:30.684Z,57.60
2019-05-26T08:02:59.854Z,57.70
2019-05-26T08:05:28.603Z,57.70
2019-05-26T08:08:11.642Z,58.20
2019-05-26T08:10:27.381Z,57.30
2019-05-26T08:12:56.095Z,57.60
2019-05-26T08:15:24.904Z,56.90
2019-05-26T08:17:53.592Z,56.30
2019-05-26T08:20:22.385Z,55.80
2019-05-26T08:22:50.827Z,54.20
2019-05-26T08:25:19.359Z,54.00
2019-05-26T08:27:47.883Z,53.20
2019-05-26T08:30:16.506Z,51.50
2019-05-26T08:32:45.351Z,50.70
2019-05-26T08:35:14.822Z,50.40
2019-05-26T08:37:43.292Z,51.00
2019-05-26T08:40:18.111Z,50.00
2019-05-26T08:42:51.495Z,50.50
2019-05-26T08:45:22.611Z,49.70
2019-05-26T08:47:52.533Z,49.50
2019-05-26T08:50:21.977Z,50.00
2019-05-26T08:52:50.537Z,49.70
2019-05-26T08:55:19.339Z,48.30
2019-05-26T08:57:47.881Z,48.50
2019-05-26T09:00:17.062Z,47.60
2019-05-26T09:02:45.780Z,46.70
2019-05-26T09:05:14.651Z,46.70
2019-05-26T09:07:43.109Z,47.60
2019-05-26T09:10:12.394Z,45.70
2019-05-26T09:12:40.926Z,45.40
2019-05-26T09:15:09.932Z,45.60
2019-05-26T09:17:38.519Z,45.90
2019-05-26T09:20:11.651Z,45.60
2019-05-26T09:22:39.648Z,45.10
2019-05-26T09:25:09.086Z,44.00
2019-05-26T09:27:37.851Z,44.50
2019-05-26T09:30:07.584Z,43.70
2019-05-26T09:32:36.274Z,43.40
2019-05-26T09:35:07.751Z,44.20
2019-05-26T09:37:36.252Z,45.10
2019-05-26T09:40:08.702Z,45.50
2019-05-26T09:42:37.239Z,46.20
2019-05-26T09:45:08.887Z,46.80
2019-05-26T09:47:37.668Z,46.60
2019-05-26T09:50:07.175Z,45.50
2019-05-26T09:52:36.062Z,45.70
2019-05-26T09:55:09.327Z,45.20
2019-05-26T09:57:37.789Z,45.20
2019-05-26T10:00:08.075Z,46.20
2019-05-26T10:02:36.911Z,45.20
2019-05-26T10:05:07.099Z,45.30
2019-05-26T10:07:35.628Z,45.60
2019-05-26T10:10:08.817Z,45.70
2019-05-26T10:12:37.253Z,45.10
2019-05-26T10:15:10.111Z,45.70
2019-05-26T10:17:38.551Z,46.10
2019-05-26T10:20:10.094Z,45.80
2019-05-26T10:22:38.538Z,44.90
2019-05-26T10:25:08.747Z,46.00
2019-05-26T10:27:37.224Z,45.50
2019-05-26T10:30:11.894Z,44.80
2019-05-26T10:32:40.948Z,45.10
2019-05-26T10:35:10.543Z,44.00
2019-05-26T10:37:39.051Z,44.00
2019-05-26T10:40:09.199Z,44.10
2019-05-26T10:42:37.946Z,43.80
2019-05-26T10:45:08.572Z,44.50
2019-05-26T10:47:37.048Z,44.60
2019-05-26T10:50:09.032Z,44.10
2019-05-26T10:52:37.512Z,43.70
2019-05-26T10:55:09.211Z,43.00
2019-05-26T10:57:37.679Z,42.50
2019-05-26T11:00:08.526Z,43.90
2019-05-26T11:02:37.055Z,42.60
2019-05-26T11:05:07.280Z,43.50
2019-05-26T11:07:35.807Z,44.00
2019-05-26T11:10:08.656Z,43.40
2019-05-26T11:12:37.180Z,44.30
2019-05-26T11:15:09.580Z,44.10
2019-05-26T11:17:38.235Z,44.90
2019-05-26T11:20:08.648Z,44.60
2019-05-26T11:22:37.402Z,45.40
2019-05-26T11:25:06.899Z,45.00
2019-05-26T11:27:35.372Z,45.10
2019-05-26T11:30:11.846Z,45.80
2019-05-26T11:32:40.563Z,45.70
2019-05-26T11:35:09.499Z,45.80
2019-05-26T11:37:38.037Z,45.80
2019-05-26T11:40:07.223Z,45.60
2019-05-26T11:42:36.020Z,45.00
2019-05-26T11:45:09.290Z,44.30
2019-05-26T11:47:37.754Z,43.90
2019-05-26T11:50:07.261Z,43.90
2019-05-26T11:52:35.716Z,43.90
2019-05-26T11:55:06.402Z,44.90
2019-05-26T11:57:36.965Z,44.50
2019-05-26T12:00:14.291Z,44.20
2019-05-26T12:02:43.935Z,43.70
2019-05-26T12:05:12.927Z,44.50
2019-05-26T12:07:41.646Z,44.20
2019-05-26T12:10:14.184Z,44.80
2019-05-26T12:12:41.895Z,44.20
2019-05-26T12:15:11.084Z,45.10
2019-05-26T12:17:39.599Z,46.60
2019-05-26T12:20:08.755Z,43.70
2019-05-26T12:22:37.369Z,44.40
2019-05-26T12:25:08.177Z,44.30
2019-05-26T12:27:36.693Z,44.30
2019-05-26T12:30:09.592Z,44.10
2019-05-26T12:32:38.018Z,44.00
2019-05-26T12:35:08.117Z,44.20
2019-05-26T12:37:36.592Z,44.20
2019-05-26T12:40:08.356Z,44.40
2019-05-26T12:42:37.132Z,44.50
2019-05-26T12:45:07.984Z,44.60
2019-05-26T12:47:36.759Z,44.20
2019-05-26T12:50:09.294Z,44.00
2019-05-26T12:52:37.379Z,43.40
2019-05-26T12:55:09.329Z,43.70
2019-05-26T12:57:37.286Z,44.50
2019-05-26T13:00:10.855Z,44.40
2019-05-26T13:02:39.459Z,43.60
2019-05-26T13:05:09.009Z,43.50
2019-05-26T13:07:37.747Z,42.80
2019-05-26T13:10:08.060Z,42.90
2019-05-26T13:12:36.551Z,42.60
2019-05-26T13:15:09.917Z,42.40
2019-05-26T13:17:38.751Z,41.60
2019-05-26T13:20:08.360Z,41.70
2019-05-26T13:22:37.050Z,41.60
2019-05-26T13:25:08.647Z,42.00
2019-05-26T13:27:37.088Z,42.30
2019-05-26T13:30:08.601Z,42.60
2019-05-26T13:32:37.047Z,42.50
2019-05-26T13:35:09.310Z,41.40
2019-05-26T13:37:37.842Z,42.00
2019-05-26T13:40:08.025Z,41.60
2019-05-26T13:42:37.456Z,42.30
2019-05-26T13:45:21.106Z,41.30
2019-05-26T13:47:38.717Z,41.30
2019-05-26T13:50:08.234Z,41.30
2019-05-26T13:52:36.683Z,41.00
2019-05-26T13:55:09.590Z,40.70
2019-05-26T13:57:38.042Z,41.40
2019-05-26T14:00:12.068Z,41.60
2019-05-26T14:02:40.728Z,40.80
2019-05-26T14:05:10.057Z,40.30
2019-05-26T14:07:38.767Z,41.30
2019-05-26T14:10:08.315Z,41.90
2019-05-26T14:12:36.938Z,41.20
2019-05-26T14:15:08.504Z,40.90
2019-05-26T14:17:38.538Z,41.50
2019-05-26T14:20:08.784Z,42.00
2019-05-26T14:22:37.263Z,44.00
2019-05-26T14:25:07.750Z,41.70
2019-05-26T14:27:36.483Z,43.10
2019-05-26T14:30:07.723Z,42.20
2019-05-26T14:32:36.182Z,42.50
2019-05-26T14:35:07.552Z,43.20
2019-05-26T14:37:36.123Z,42.60
2019-05-26T14:40:07.678Z,41.20
2019-05-26T14:42:36.269Z,40.60
2019-05-26T14:45:06.116Z,41.40
2019-05-26T14:47:34.570Z,41.20
2019-05-26T14:50:04.443Z,40.90
2019-05-26T14:52:33.163Z,40.70
2019-05-26T14:55:01.608Z,41.70
2019-05-26T14:57:31.040Z,41.50
2019-05-26T14:59:59.935Z,41.80
2019-05-26T15:02:28.520Z,42.00
2019-05-26T15:04:57.255Z,41.50
2019-05-26T15:07:25.703Z,41.80
2019-05-26T15:09:54.138Z,41.50
2019-05-26T15:12:22.922Z,40.90
2019-05-26T15:14:51.378Z,41.00
2019-05-26T15:17:19.807Z,41.40
2019-05-26T15:19:48.516Z,41.70
2019-05-26T15:22:17.170Z,41.20
2019-05-26T15:24:45.646Z,40.90
2019-05-26T15:27:14.439Z,41.00
2019-05-26T15:29:43.207Z,41.10
2019-05-26T15:32:11.894Z,41.20
2019-05-26T15:34:40.620Z,41.30
2019-05-26T15:37:09.059Z,40.70
2019-05-26T15:39:37.557Z,41.90
2019-05-26T15:42:08.338Z,40.80
2019-05-26T15:44:36.322Z,40.30
2019-05-26T15:47:05.678Z,40.50
2019-05-26T15:49:34.219Z,41.00
2019-05-26T15:52:02.802Z,41.30
2019-05-26T15:54:31.771Z,41.40
2019-05-26T15:57:00.267Z,42.00
2019-05-26T15:59:28.978Z,41.90
2019-05-26T16:01:57.435Z,42.30
2019-05-26T16:04:25.896Z,42.30
2019-05-26T16:06:54.580Z,42.40
2019-05-26T16:09:23.399Z,42.90
2019-05-26T16:11:52.120Z,43.40
2019-05-26T16:14:21.096Z,42.90
2019-05-26T16:16:51.381Z,43.30
2019-05-26T16:19:19.710Z,43.50
2019-05-26T16:21:48.490Z,43.90
2019-05-26T16:24:17.211Z,44.20
2019-05-26T16:26:45.646Z,44.30
2019-05-26T16:29:14.120Z,44.70
2019-05-26T16:31:42.559Z,45.60
2019-05-26T16:34:11.007Z,45.80
2019-05-26T16:36:39.451Z,46.10
2019-05-26T16:39:07.973Z,46.40
2019-05-26T16:41:36.771Z,46.50
2019-05-26T16:44:05.337Z,46.60
2019-05-26T16:46:33.782Z,46.50
2019-05-26T16:49:02.241Z,46.50
2019-05-26T16:51:30.976Z,46.70
2019-05-26T16:53:59.846Z,47.20
2019-05-26T16:56:28.370Z,46.70
2019-05-26T16:58:57.111Z,46.70
2019-05-26T17:01:25.838Z,47.10
2019-05-26T17:03:54.346Z,47.40
2019-05-26T17:06:22.795Z,47.50
2019-05-26T17:08:51.254Z,47.50
2019-05-26T17:11:19.693Z,47.80
2019-05-26T17:13:48.164Z,47.90
2019-05-26T17:16:16.856Z,48.10
2019-05-26T17:18:45.488Z,48.20
2019-05-26T17:21:14.015Z,48.40
2019-05-26T17:23:42.724Z,48.50
2019-05-26T17:26:11.179Z,48.60
2019-05-26T17:28:39.911Z,48.60
2019-05-26T17:31:08.364Z,48.90
2019-05-26T17:33:36.810Z,49.50
2019-05-26T17:36:05.522Z,49.50
2019-05-26T17:38:34.255Z,49.60
2019-05-26T17:41:02.945Z,49.90
2019-05-26T17:43:31.659Z,50.40
2019-05-26T17:46:00.104Z,50.30
2019-05-26T17:48:28.624Z,50.50
2019-05-26T17:50:57.527Z,50.80
2019-05-26T17:53:29.150Z,51.00
2019-05-26T17:55:58.019Z,51.30
2019-05-26T17:58:26.635Z,51.60
2019-05-26T18:00:55.086Z,51.90
2019-05-26T18:03:23.527Z,52.20
2019-05-26T18:05:52.295Z,52.40
2019-05-26T18:08:20.814Z,52.70
2019-05-26T18:10:49.419Z,52.90
2019-05-26T18:13:18.556Z,53.00
2019-05-26T18:15:47.326Z,53.20
2019-05-26T18:18:15.928Z,53.20
2019-05-26T18:20:45.950Z,53.40
2019-05-26T18:23:14.723Z,53.80
2019-05-26T18:25:43.543Z,53.50
2019-05-26T18:28:11.992Z,53.60
2019-05-26T18:30:40.997Z,53.80
2019-05-26T18:33:09.511Z,53.70
2019-05-26T18:35:38.291Z,53.90
2019-05-26T18:38:07.322Z,54.10
2019-05-26T18:40:35.800Z,54.20
2019-05-26T18:43:08.266Z,54.30
2019-05-26T18:45:36.954Z,54.50
2019-05-26T18:48:05.723Z,54.60
2019-05-26T18:50:34.812Z,54.80
2019-05-26T18:53:03.487Z,54.90
2019-05-26T18:55:31.993Z,55.00
2019-05-26T18:58:00.654Z,55.40
2019-05-26T19:00:30.945Z,55.30
2019-05-26T19:02:59.435Z,55.50
2019-05-26T19:05:33.701Z,55.70
2019-05-26T19:07:58.304Z,55.70
2019-05-26T19:10:27.007Z,55.70
2019-05-26T19:12:55.767Z,56.00
2019-05-26T19:15:24.284Z,55.80
2019-05-26T19:17:52.979Z,55.80
2019-05-26T19:20:22.614Z,56.10
2019-05-26T19:22:53.438Z,56.20
2019-05-26T19:25:21.542Z,56.30
2019-05-26T19:27:50.064Z,56.50
2019-05-26T19:30:18.676Z,56.50
2019-05-26T19:32:47.180Z,56.60
2019-05-26T19:35:15.614Z,57.00
2019-05-26T19:37:44.064Z,57.00
2019-05-26T19:40:13.599Z,57.30
2019-05-26T19:42:42.297Z,57.20
2019-05-26T19:45:11.130Z,57.40
2019-05-26T19:47:39.571Z,57.40
2019-05-26T19:50:08.718Z,57.50
2019-05-26T19:52:37.172Z,57.60
2019-05-26T19:55:08.754Z,57.60
2019-05-26T19:57:37.497Z,57.60
2019-05-26T20:00:15.211Z,57.60
2019-05-26T20:02:43.658Z,57.70
2019-05-26T20:05:14.530Z,57.90
2019-05-26T20:07:43.027Z,57.80
2019-05-26T20:10:12.059Z,58.00
2019-05-26T20:12:40.867Z,58.10
2019-05-26T20:15:11.406Z,58.10
2019-05-26T20:17:39.857Z,58.10
2019-05-26T20:20:09.473Z,58.10
2019-05-26T20:22:38.003Z,58.30
2019-05-26T20:25:08.771Z,58.30
2019-05-26T20:27:37.362Z,58.30
2019-05-26T20:30:09.304Z,57.90
2019-05-26T20:32:38.295Z,58.30
2019-05-26T20:35:10.116Z,58.30
2019-05-26T20:37:38.878Z,58.50
2019-05-26T20:40:09.239Z,58.50
2019-05-26T20:42:38.324Z,58.60
2019-05-26T20:45:08.009Z,58.60
2019-05-26T20:47:36.566Z,58.70
2019-05-26T20:50:08.274Z,58.50
2019-05-26T20:52:38.561Z,58.70
2019-05-26T20:55:09.095Z,58.80
2019-05-26T20:57:37.960Z,58.70
2019-05-26T21:00:11.515Z,58.70
2019-05-26T21:02:41.079Z,59.10
2019-05-26T21:05:10.619Z,59.20
2019-05-26T21:07:39.082Z,59.30
2019-05-26T21:10:08.708Z,59.30
2019-05-26T21:12:37.237Z,59.40
2019-05-26T21:15:08.989Z,59.30
2019-05-26T21:17:37.435Z,59.20
2019-05-26T21:20:10.091Z,59.40
2019-05-26T21:22:39.021Z,59.40
2019-05-26T21:25:08.000Z,60.00
2019-05-26T21:27:36.597Z,59.90
2019-05-26T21:30:09.882Z,60.00
2019-05-26T21:32:38.388Z,60.00
2019-05-26T21:35:07.663Z,60.10
2019-05-26T21:37:36.200Z,60.10
2019-05-26T21:40:07.093Z,60.10
2019-05-26T21:42:35.533Z,60.10
2019-05-26T21:45:05.806Z,60.10
2019-05-26T21:47:34.270Z,60.20
2019-05-26T21:50:03.216Z,60.10
2019-05-26T21:52:31.745Z,60.20
2019-05-26T21:55:00.309Z,60.20
2019-05-26T21:57:28.807Z,60.30
2019-05-26T21:59:57.274Z,60.30
2019-05-26T22:02:26.147Z,60.30
2019-05-26T22:04:54.662Z,60.40
2019-05-26T22:07:23.399Z,60.40
2019-05-26T22:09:52.060Z,60.40
2019-05-26T22:12:20.615Z,60.40
2019-05-26T22:14:49.368Z,60.50
2019-05-26T22:17:17.871Z,60.50
2019-05-26T22:19:46.671Z,60.50
2019-05-26T22:22:15.113Z,60.50
2019-05-26T22:24:43.567Z,60.60
2019-05-26T22:27:12.267Z,60.60
2019-05-26T22:29:40.875Z,60.60
2019-05-26T22:32:12.554Z,60.60
2019-05-26T22:34:41.071Z,60.70
2019-05-26T22:37:09.589Z,60.70
2019-05-26T22:39:38.188Z,60.70
2019-05-26T22:42:06.626Z,60.70
2019-05-26T22:44:35.115Z,60.80
2019-05-26T22:47:03.641Z,61.00
2019-05-26T22:49:32.229Z,60.70
2019-05-26T22:52:00.745Z,60.70
2019-05-26T22:54:29.337Z,60.70
2019-05-26T22:56:58.058Z,60.70
2019-05-26T22:59:26.880Z,60.70
2019-05-26T23:01:55.342Z,60.70
2019-05-26T23:04:23.771Z,60.70
2019-05-26T23:06:52.235Z,60.80
2019-05-26T23:09:20.671Z,60.80
2019-05-26T23:11:49.367Z,60.80
2019-05-26T23:14:17.814Z,60.70
2019-05-26T23:16:46.256Z,60.70
2019-05-26T23:19:19.410Z,60.80
2019-05-26T23:21:45.076Z,60.80
2019-05-26T23:24:14.294Z,60.80
2019-05-26T23:26:42.836Z,60.70
2019-05-26T23:29:11.286Z,60.70
2019-05-26T23:31:39.724Z,60.70
2019-05-26T23:34:08.429Z,60.80
2019-05-26T23:36:37.161Z,60.80
2019-05-26T23:39:07.199Z,60.80
2019-05-26T23:41:36.004Z,60.80
2019-05-26T23:44:04.706Z,60.90
2019-05-26T23:46:33.391Z,60.90
2019-05-26T23:49:01.855Z,60.90
2019-05-26T23:51:30.401Z,60.90
2019-05-26T23:53:58.890Z,61.00
2019-05-26T23:56:27.675Z,61.00
2019-05-26T23:58:56.106Z,61.00
